createdAt,value
2023-05-12T00:01:45.745Z,57.11
2023-05-12T00:03:47.641Z,57.31
2023-05-12T00:05:49.792Z,57.25
2023-05-12T00:07:51.249Z,57.20
2023-05-12T00:09:55.163Z,57.15
2023-05-12T00:11:56.630Z,57.38
2023-05-12T00:13:58.124Z,57.32
2023-05-12T00:15:59.695Z,57.25
2023-05-12T00:18:03.217Z,57.21
2023-05-12T00:20:08.111Z,57.41
2023-05-12T00:22:15.409Z,57.23
2023-05-12T00:24:19.988Z,57.13
2023-05-12T00:26:21.636Z,57.26
2023-05-12T00:28:23.379Z,57.31
2023-05-12T00:30:25.502Z,57.22
2023-05-12T00:32:27.424Z,57.21
2023-05-12T00:34:31.762Z,57.21
2023-05-12T00:36:36.494Z,57.13
2023-05-12T00:38:38.569Z,57.09
2023-05-12T00:40:40.645Z,57.20
2023-05-12T00:42:44.197Z,57.29
2023-05-12T00:44:48.565Z,57.15
2023-05-12T00:46:51.313Z,57.21
2023-05-12T00:48:53.272Z,57.03
2023-05-12T00:50:56.732Z,56.87
2023-05-12T00:53:00.593Z,56.97
2023-05-12T00:55:03.399Z,57.15
2023-05-12T00:57:08.137Z,57.12
2023-05-12T00:59:09.811Z,57.15
2023-05-12T01:01:15.011Z,57.23
2023-05-12T01:03:23.469Z,57.17
2023-05-12T01:05:32.114Z,57.26
2023-05-12T01:07:33.972Z,57.11
2023-05-12T01:09:39.038Z,57.41
2023-05-12T01:11:43.566Z,57.28
2023-05-12T01:13:45.620Z,57.31
2023-05-12T01:15:54.234Z,57.21
2023-05-12T01:17:59.959Z,57.21
2023-05-12T01:20:05.239Z,57.27
2023-05-12T01:22:08.815Z,57.25
2023-05-12T01:24:12.133Z,57.28
2023-05-12T01:26:16.518Z,57.42
2023-05-12T01:28:21.858Z,57.54
2023-05-12T01:30:31.905Z,57.85
2023-05-12T01:32:34.358Z,58.19
2023-05-12T01:34:36.957Z,57.94
2023-05-12T01:36:41.396Z,57.86
2023-05-12T01:38:43.514Z,57.94
2023-05-12T01:40:48.063Z,58.35
2023-05-12T01:42:52.577Z,58.39
2023-05-12T01:44:54.671Z,58.42
2023-05-12T01:46:59.749Z,58.58
2023-05-12T01:49:04.288Z,58.35
2023-05-12T01:51:09.041Z,58.62
2023-05-12T01:53:11.213Z,58.58
2023-05-12T01:55:12.660Z,58.64
2023-05-12T01:57:27.443Z,58.72
2023-05-12T01:59:36.122Z,58.83
2023-05-12T02:01:40.070Z,58.65
2023-05-12T02:03:42.948Z,58.58
2023-05-12T02:05:48.489Z,58.57
2023-05-12T02:07:55.160Z,58.54
2023-05-12T02:10:04.137Z,58.50
2023-05-12T02:12:09.012Z,58.59
2023-05-12T02:14:10.772Z,58.39
2023-05-12T02:16:15.471Z,58.53
2023-05-12T02:18:17.482Z,58.32
2023-05-12T02:20:19.222Z,58.41
2023-05-12T02:22:25.526Z,58.39
2023-05-12T02:24:29.386Z,58.32
2023-05-12T02:26:31.363Z,58.33
2023-05-12T02:28:38.305Z,58.23
2023-05-12T02:30:51.068Z,58.51
2023-05-12T02:32:55.090Z,58.35
2023-05-12T02:34:56.892Z,58.18
2023-05-12T02:36:58.964Z,58.25
2023-05-12T02:39:09.150Z,58.21
2023-05-12T02:41:14.294Z,58.22
2023-05-12T02:43:20.400Z,58.22
2023-05-12T02:45:22.186Z,58.01
2023-05-12T02:47:23.825Z,58.23
2023-05-12T02:49:28.662Z,58.29
2023-05-12T02:51:30.726Z,58.23
2023-05-12T02:53:32.481Z,58.29
2023-05-12T02:55:35.272Z,58.32
2023-05-12T02:57:42.635Z,58.27
2023-05-12T03:00:12.434Z,58.49
2023-05-12T03:02:15.061Z,58.36
2023-05-12T03:04:16.699Z,58.40
2023-05-12T03:06:19.089Z,58.33
2023-05-12T03:08:23.721Z,58.47
2023-05-12T03:10:28.172Z,58.46
2023-05-12T03:12:30.070Z,58.70
2023-05-12T03:14:35.305Z,58.65
2023-05-12T03:16:37.151Z,58.54
2023-05-12T03:18:38.981Z,58.69
2023-05-12T03:20:43.149Z,58.77
2023-05-12T03:22:47.689Z,58.91
2023-05-12T03:24:49.369Z,58.89
2023-05-12T03:26:50.931Z,58.83
2023-05-12T03:28:54.192Z,58.85
2023-05-12T03:30:58.617Z,58.76
2023-05-12T03:33:03.317Z,58.89
2023-05-12T03:35:06.609Z,58.54
2023-05-12T03:37:10.543Z,58.43
2023-05-12T03:39:12.596Z,58.53
2023-05-12T03:41:16.545Z,58.54
2023-05-12T03:43:29.820Z,58.48
2023-05-12T03:45:32.437Z,58.38
2023-05-12T03:47:35.917Z,58.36
2023-05-12T03:49:37.631Z,58.55
2023-05-12T03:51:39.289Z,58.27
2023-05-12T03:53:46.294Z,58.52
2023-05-12T03:55:48.374Z,58.60
2023-05-12T03:57:59.721Z,58.98
2023-05-12T04:00:01.595Z,59.18
2023-05-12T04:02:04.279Z,59.28
2023-05-12T04:04:06.014Z,59.38
2023-05-12T04:06:07.842Z,59.26
2023-05-12T04:08:10.380Z,59.21
2023-05-12T04:10:11.962Z,59.36
2023-05-12T04:12:16.357Z,59.49
2023-05-12T04:14:18.321Z,59.57
2023-05-12T04:16:20.063Z,59.59
2023-05-12T04:18:21.634Z,59.36
2023-05-12T04:20:23.224Z,59.44
2023-05-12T04:22:25.838Z,59.29
2023-05-12T04:24:27.946Z,59.35
2023-05-12T04:26:33.400Z,59.35
2023-05-12T04:28:44.172Z,59.25
2023-05-12T04:30:45.794Z,59.31
2023-05-12T04:32:57.278Z,59.22
2023-05-12T04:34:59.298Z,59.15
2023-05-12T04:37:00.999Z,59.13
2023-05-12T04:39:02.637Z,59.29
2023-05-12T04:41:04.398Z,59.22
2023-05-12T04:43:06.080Z,59.13
2023-05-12T04:45:11.198Z,58.90
2023-05-12T04:47:13.264Z,58.82
2023-05-12T04:49:15.302Z,58.88
2023-05-12T04:51:19.820Z,58.74
2023-05-12T04:53:21.375Z,58.78
2023-05-12T04:55:23.543Z,58.71
2023-05-12T04:57:25.254Z,58.51
2023-05-12T04:59:28.406Z,58.47
2023-05-12T05:01:30.432Z,58.63
2023-05-12T05:03:33.594Z,58.41
2023-05-12T05:05:36.622Z,58.63
2023-05-12T05:07:38.341Z,58.65
2023-05-12T05:09:39.875Z,58.58
2023-05-12T05:11:41.715Z,58.63
2023-05-12T05:13:44.035Z,58.45
2023-05-12T05:15:55.072Z,58.50
2023-05-12T05:18:01.780Z,58.40
2023-05-12T05:20:11.426Z,58.60
2023-05-12T05:22:16.830Z,58.77
2023-05-12T05:24:19.592Z,58.93
2023-05-12T05:26:21.663Z,58.85
2023-05-12T05:28:23.231Z,58.91
2023-05-12T05:30:25.218Z,59.08
2023-05-12T05:32:27.103Z,58.84
2023-05-12T05:34:31.480Z,58.86
2023-05-12T05:36:34.182Z,58.81
2023-05-12T05:38:39.348Z,58.94
2023-05-12T05:40:52.340Z,58.81
2023-05-12T05:42:55.069Z,58.79
2023-05-12T05:44:56.834Z,58.89
2023-05-12T05:46:58.999Z,58.84
2023-05-12T05:49:03.067Z,59.04
2023-05-12T05:51:06.157Z,58.94
2023-05-12T05:53:08.328Z,58.92
2023-05-12T05:55:10.641Z,58.76
2023-05-12T05:57:20.007Z,58.61
2023-05-12T05:59:21.733Z,58.65
2023-05-12T06:01:23.472Z,58.60
2023-05-12T06:03:25.152Z,58.50
2023-05-12T06:05:26.944Z,58.42
2023-05-12T06:07:28.522Z,58.14
2023-05-12T06:09:32.570Z,58.12
2023-05-12T06:11:34.226Z,58.15
2023-05-12T06:13:36.877Z,58.06
2023-05-12T06:15:40.802Z,58.05
2023-05-12T06:17:45.570Z,57.90
2023-05-12T06:19:49.647Z,57.61
2023-05-12T06:21:55.550Z,57.86
2023-05-12T06:24:01.466Z,57.87
2023-05-12T06:26:03.185Z,57.74
2023-05-12T06:28:07.155Z,57.71
2023-05-12T06:30:16.312Z,57.72
2023-05-12T06:32:18.533Z,57.64
2023-05-12T06:34:20.257Z,57.67
2023-05-12T06:36:24.870Z,57.58
2023-05-12T06:38:26.371Z,57.61
2023-05-12T06:40:28.098Z,57.55
2023-05-12T06:42:29.969Z,57.49
2023-05-12T06:44:31.552Z,57.47
2023-05-12T06:46:33.078Z,57.36
2023-05-12T06:48:34.809Z,57.43
2023-05-12T06:50:36.524Z,57.28
2023-05-12T06:52:38.125Z,57.48
2023-05-12T06:54:39.735Z,57.46
2023-05-12T06:56:41.777Z,57.39
2023-05-12T06:58:43.891Z,57.52
2023-05-12T07:00:45.340Z,57.37
2023-05-12T07:02:46.943Z,57.40
2023-05-12T07:04:48.553Z,57.39
2023-05-12T07:06:51.862Z,57.42
2023-05-12T07:08:55.990Z,57.59
2023-05-12T07:11:00.148Z,57.63
2023-05-12T07:13:02.082Z,58.06
2023-05-12T07:15:04.591Z,57.56
2023-05-12T07:17:06.362Z,57.66
2023-05-12T07:19:09.808Z,57.66
2023-05-12T07:21:12.946Z,57.59
2023-05-12T07:23:17.667Z,57.66
2023-05-12T07:25:19.663Z,57.72
2023-05-12T07:27:24.115Z,57.78
2023-05-12T07:29:25.959Z,57.79
2023-05-12T07:31:28.303Z,57.70
2023-05-12T07:33:33.801Z,57.73
2023-05-12T07:35:35.448Z,57.71
2023-05-12T07:37:37.116Z,57.73
2023-05-12T07:39:40.930Z,57.72
2023-05-12T07:41:47.878Z,57.74
2023-05-12T07:43:49.844Z,57.95
2023-05-12T07:45:51.394Z,57.63
2023-05-12T07:47:52.993Z,57.88
2023-05-12T07:49:54.621Z,57.74
2023-05-12T07:51:56.182Z,57.57
2023-05-12T07:53:58.195Z,57.65
2023-05-12T07:55:59.948Z,57.59
2023-05-12T07:58:02.067Z,57.71
2023-05-12T08:00:04.968Z,57.52
2023-05-12T08:02:14.508Z,57.54
2023-05-12T08:04:16.358Z,57.44
2023-05-12T08:06:18.686Z,57.63
2023-05-12T08:08:20.288Z,57.57
2023-05-12T08:10:22.570Z,57.59
2023-05-12T08:12:24.268Z,57.34
2023-05-12T08:14:25.902Z,57.48
2023-05-12T08:16:27.543Z,57.45
2023-05-12T08:18:31.457Z,57.60
2023-05-12T08:20:33.517Z,57.41
2023-05-12T08:22:37.840Z,57.44
2023-05-12T08:24:39.503Z,57.25
2023-05-12T08:26:41.005Z,57.15
2023-05-12T08:28:42.532Z,57.21
2023-05-12T08:30:47.313Z,57.28
2023-05-12T08:32:49.173Z,57.39
2023-05-12T08:34:50.901Z,57.27
2023-05-12T08:36:53.597Z,57.28
2023-05-12T08:38:56.236Z,57.10
2023-05-12T08:41:23.125Z,57.11
2023-05-12T08:43:36.549Z,56.91
2023-05-12T08:45:40.607Z,57.13
2023-05-12T08:47:44.051Z,56.86
2023-05-12T08:50:13.319Z,57.12
2023-05-12T08:52:37.678Z,56.82
2023-05-12T08:54:56.628Z,56.92
2023-05-12T08:57:54.262Z,57.04
2023-05-12T09:00:02.953Z,57.01
2023-05-12T09:02:16.406Z,56.95
2023-05-12T09:04:41.837Z,56.94
2023-05-12T09:06:47.003Z,57.03
2023-05-12T09:08:59.198Z,56.86
2023-05-12T09:11:18.028Z,56.80
2023-05-12T09:13:50.733Z,56.51
2023-05-12T09:15:56.682Z,56.62
2023-05-12T09:18:01.567Z,56.84
2023-05-12T09:20:06.606Z,56.75
2023-05-12T09:22:09.637Z,56.83
2023-05-12T09:24:13.423Z,57.09
2023-05-12T09:26:27.619Z,57.08
2023-05-12T09:28:38.885Z,56.95
2023-05-12T09:30:42.392Z,56.54
2023-05-12T09:32:44.214Z,56.62
2023-05-12T09:34:46.392Z,56.71
2023-05-12T09:37:00.466Z,56.57
2023-05-12T09:39:08.017Z,56.30
2023-05-12T09:41:25.494Z,56.38
2023-05-12T09:43:28.940Z,56.33
2023-05-12T09:45:47.892Z,56.11
2023-05-12T09:47:49.665Z,55.82
2023-05-12T09:49:52.277Z,56.15
2023-05-12T09:51:59.274Z,55.81
2023-05-12T09:54:01.349Z,55.97
2023-05-12T09:56:22.086Z,56.02
2023-05-12T09:58:31.983Z,56.12
2023-05-12T10:00:55.125Z,55.63
2023-05-12T10:02:58.225Z,55.71
2023-05-12T10:05:06.079Z,55.43
2023-05-12T10:07:13.033Z,55.41
2023-05-12T10:09:27.256Z,55.17
2023-05-12T10:11:31.656Z,55.02
2023-05-12T10:13:33.934Z,55.42
2023-05-12T10:15:35.750Z,55.46
2023-05-12T10:17:40.548Z,55.46
2023-05-12T10:19:43.282Z,55.45
2023-05-12T10:22:02.594Z,55.66
2023-05-12T10:24:07.089Z,55.27
2023-05-12T10:26:12.789Z,55.37
2023-05-12T10:28:22.504Z,54.95
2023-05-12T10:30:25.879Z,55.11
2023-05-12T10:32:28.138Z,55.47
2023-05-12T10:34:34.315Z,55.66
2023-05-12T10:36:51.307Z,55.38
2023-05-12T10:39:08.753Z,55.54
2023-05-12T10:41:31.043Z,55.85
2023-05-12T10:43:45.184Z,55.40
2023-05-12T10:45:47.289Z,55.35
2023-05-12T10:47:49.027Z,55.09
2023-05-12T10:49:57.085Z,55.05
2023-05-12T10:52:03.266Z,55.23
2023-05-12T10:54:07.714Z,55.16
2023-05-12T10:56:09.716Z,54.72
2023-05-12T10:58:13.430Z,54.76
2023-05-12T11:00:17.275Z,54.38
2023-05-12T11:02:23.691Z,54.87
2023-05-12T11:04:40.863Z,54.52
2023-05-12T11:06:47.009Z,54.96
2023-05-12T11:08:53.345Z,54.70
2023-05-12T11:11:01.562Z,54.68
2023-05-12T11:13:04.641Z,54.80
2023-05-12T11:15:07.215Z,54.68
2023-05-12T11:17:09.723Z,54.49
2023-05-12T11:19:18.946Z,54.42
2023-05-12T11:21:30.104Z,53.98
2023-05-12T11:23:33.961Z,53.48
2023-05-12T11:25:38.342Z,52.97
2023-05-12T11:27:48.467Z,52.80
2023-05-12T11:30:04.019Z,53.19
2023-05-12T11:32:26.011Z,53.50
2023-05-12T11:34:28.198Z,53.63
2023-05-12T11:37:14.765Z,53.24
2023-05-12T11:39:17.993Z,53.30
2023-05-12T11:41:26.344Z,53.04
2023-05-12T11:43:41.426Z,53.25
2023-05-12T11:45:46.417Z,52.66
2023-05-12T11:48:11.622Z,53.01
2023-05-12T11:50:20.721Z,52.74
2023-05-12T11:52:25.132Z,53.07
2023-05-12T11:54:31.914Z,53.24
2023-05-12T11:56:36.628Z,53.13
2023-05-12T11:58:51.789Z,52.81
2023-05-12T12:00:54.342Z,51.89
2023-05-12T12:03:07.327Z,50.61
2023-05-12T12:05:22.172Z,50.68
2023-05-12T12:07:32.175Z,50.57
2023-05-12T12:09:43.271Z,49.99
2023-05-12T12:11:44.988Z,49.78
2023-05-12T12:13:57.088Z,49.36
2023-05-12T12:15:59.193Z,49.13
2023-05-12T12:18:13.897Z,48.48
2023-05-12T12:20:21.352Z,48.74
2023-05-12T12:22:23.525Z,48.75
2023-05-12T12:24:31.123Z,48.38
2023-05-12T12:26:32.727Z,48.49
2023-05-12T12:28:35.274Z,48.37
2023-05-12T12:30:37.499Z,47.96
2023-05-12T12:32:39.995Z,48.10
2023-05-12T12:34:41.750Z,47.53
2023-05-12T12:36:51.866Z,46.83
2023-05-12T12:39:21.569Z,45.97
2023-05-12T12:41:23.160Z,46.33
2023-05-12T12:43:27.338Z,46.18
2023-05-12T12:45:30.123Z,46.08
2023-05-12T12:47:42.748Z,46.00
2023-05-12T12:49:44.993Z,46.44
2023-05-12T12:51:47.276Z,46.51
2023-05-12T12:53:52.595Z,46.34
2023-05-12T12:55:56.300Z,46.63
2023-05-12T12:57:58.239Z,46.68
2023-05-12T13:00:03.094Z,46.50
2023-05-12T13:02:05.211Z,46.70
2023-05-12T13:04:06.878Z,46.30
2023-05-12T13:06:09.364Z,46.89
2023-05-12T13:08:12.112Z,46.53
2023-05-12T13:10:18.000Z,46.64
2023-05-12T13:12:25.593Z,46.70
2023-05-12T13:14:32.656Z,46.70
2023-05-12T13:16:36.770Z,47.18
2023-05-12T13:18:38.322Z,46.92
2023-05-12T13:20:40.393Z,46.74
2023-05-12T13:22:45.783Z,47.10
2023-05-12T13:24:47.961Z,47.62
2023-05-12T13:26:52.584Z,48.28
2023-05-12T13:28:54.238Z,48.32
2023-05-12T13:30:56.349Z,48.79
2023-05-12T13:33:00.757Z,48.70
2023-05-12T13:35:05.158Z,48.62
2023-05-12T13:37:06.742Z,47.98
2023-05-12T13:39:10.233Z,47.54
2023-05-12T13:41:14.211Z,47.19
2023-05-12T13:43:15.934Z,47.17
2023-05-12T13:45:19.896Z,46.98
2023-05-12T13:47:21.782Z,46.98
2023-05-12T13:49:23.747Z,46.85
2023-05-12T13:51:28.563Z,46.75
2023-05-12T13:53:32.134Z,46.62
2023-05-12T13:55:48.567Z,46.73
2023-05-12T13:57:50.370Z,46.60
2023-05-12T13:59:58.888Z,46.32
2023-05-12T14:02:11.152Z,46.23
2023-05-12T14:04:15.792Z,46.51
2023-05-12T14:06:17.482Z,45.71
2023-05-12T14:08:22.007Z,45.94
2023-05-12T14:10:23.884Z,45.87
2023-05-12T14:12:28.535Z,46.46
2023-05-12T14:14:30.082Z,46.02
2023-05-12T14:16:31.953Z,45.83
2023-05-12T14:18:33.598Z,45.88
2023-05-12T14:20:48.998Z,45.76
2023-05-12T14:22:50.830Z,46.18
2023-05-12T14:24:56.013Z,45.88
2023-05-12T14:27:00.833Z,46.25
2023-05-12T14:29:02.607Z,46.35
2023-05-12T14:31:04.335Z,46.44
2023-05-12T14:33:11.970Z,46.01
2023-05-12T14:35:17.456Z,46.34
2023-05-12T14:37:19.001Z,46.81
2023-05-12T14:39:23.261Z,46.90
2023-05-12T14:41:25.655Z,46.99
2023-05-12T14:43:27.549Z,46.95
2023-05-12T14:45:31.647Z,47.02
2023-05-12T14:47:36.596Z,46.76
2023-05-12T14:49:45.657Z,46.81
2023-05-12T14:51:48.373Z,46.67
2023-05-12T14:53:49.908Z,46.77
2023-05-12T14:55:52.110Z,46.60
2023-05-12T14:57:55.687Z,46.98
2023-05-12T14:59:58.721Z,47.08
2023-05-12T15:02:00.544Z,47.04
2023-05-12T15:04:04.010Z,46.77
2023-05-12T15:06:07.826Z,46.89
2023-05-12T15:08:13.331Z,46.95
2023-05-12T15:10:14.859Z,46.85
2023-05-12T15:12:17.713Z,46.55
2023-05-12T15:14:20.514Z,46.54
2023-05-12T15:16:28.295Z,46.30
2023-05-12T15:18:35.578Z,46.42
2023-05-12T15:20:38.154Z,46.36
2023-05-12T15:22:40.003Z,46.46
2023-05-12T15:24:44.463Z,46.32
2023-05-12T15:26:48.869Z,46.55
2023-05-12T15:28:50.610Z,46.71
2023-05-12T15:30:58.977Z,46.30
2023-05-12T15:33:04.063Z,46.44
2023-05-12T15:35:09.517Z,46.73
2023-05-12T15:37:13.468Z,47.20
2023-05-12T15:39:16.302Z,47.06
2023-05-12T15:41:20.850Z,46.83
2023-05-12T15:43:28.440Z,47.36
2023-05-12T15:45:31.446Z,47.25
2023-05-12T15:47:34.076Z,47.17
2023-05-12T15:49:35.613Z,47.04
2023-05-12T15:51:46.477Z,47.22
2023-05-12T15:53:52.228Z,47.19
2023-05-12T15:56:04.959Z,47.14
2023-05-12T15:58:18.044Z,47.20
2023-05-12T16:00:20.472Z,46.90
2023-05-12T16:02:22.068Z,47.22
2023-05-12T16:04:24.494Z,47.06
2023-05-12T16:06:26.289Z,47.04
2023-05-12T16:08:27.726Z,47.00
2023-05-12T16:10:29.200Z,47.22
2023-05-12T16:12:31.136Z,47.22
2023-05-12T16:14:33.095Z,47.39
2023-05-12T16:16:34.974Z,47.58
2023-05-12T16:18:36.939Z,47.73
2023-05-12T16:20:39.055Z,47.67
2023-05-12T16:22:40.615Z,47.25
2023-05-12T16:24:42.515Z,47.08
2023-05-12T16:26:48.797Z,47.47
2023-05-12T16:28:50.355Z,47.29
2023-05-12T16:30:51.871Z,47.07
2023-05-12T16:32:53.567Z,47.49
2023-05-12T16:34:56.105Z,47.20
2023-05-12T16:36:59.914Z,47.40
2023-05-12T16:39:01.344Z,47.32
2023-05-12T16:41:03.103Z,47.69
2023-05-12T16:43:04.625Z,47.77
2023-05-12T16:45:06.866Z,47.62
2023-05-12T16:47:08.500Z,47.53
2023-05-12T16:49:10.036Z,47.51
2023-05-12T16:51:14.615Z,47.50
2023-05-12T16:53:20.312Z,47.67
2023-05-12T16:55:22.259Z,47.76
2023-05-12T16:57:24.378Z,47.58
2023-05-12T16:59:37.391Z,47.86
2023-05-12T17:01:39.653Z,48.00
2023-05-12T17:03:41.467Z,47.91
2023-05-12T17:05:46.930Z,47.81
2023-05-12T17:07:48.479Z,47.56
2023-05-12T17:09:52.986Z,47.81
2023-05-12T17:11:54.621Z,47.47
2023-05-12T17:13:56.144Z,47.60
2023-05-12T17:15:57.785Z,47.44
2023-05-12T17:17:59.526Z,47.01
2023-05-12T17:20:12.155Z,46.80
2023-05-12T17:22:13.803Z,46.76
2023-05-12T17:24:15.325Z,46.59
2023-05-12T17:26:19.748Z,46.64
2023-05-12T17:28:22.130Z,47.06
2023-05-12T17:30:25.392Z,46.70
2023-05-12T17:32:29.511Z,46.72
2023-05-12T17:34:34.116Z,46.44
2023-05-12T17:36:36.056Z,46.72
2023-05-12T17:38:38.421Z,46.51
2023-05-12T17:40:42.937Z,46.76
2023-05-12T17:42:45.179Z,46.56
2023-05-12T17:44:51.400Z,46.73
2023-05-12T17:46:53.930Z,46.78
2023-05-12T17:48:55.813Z,46.72
2023-05-12T17:50:57.478Z,46.82
2023-05-12T17:53:02.186Z,46.61
2023-05-12T17:55:05.792Z,46.91
2023-05-12T17:57:07.550Z,47.07
2023-05-12T17:59:09.295Z,46.98
2023-05-12T18:01:10.833Z,46.78
2023-05-12T18:03:12.429Z,46.74
2023-05-12T18:05:14.051Z,46.67
2023-05-12T18:07:15.531Z,46.42
2023-05-12T18:09:17.807Z,46.54
2023-05-12T18:11:29.161Z,46.24
2023-05-12T18:13:31.144Z,46.25
2023-05-12T18:15:32.893Z,46.53
2023-05-12T18:17:34.753Z,46.34
2023-05-12T18:19:39.282Z,46.42
2023-05-12T18:21:40.777Z,46.63
2023-05-12T18:23:43.662Z,46.40
2023-05-12T18:25:45.215Z,46.66
2023-05-12T18:27:46.755Z,46.47
2023-05-12T18:29:48.197Z,46.42
2023-05-12T18:31:49.754Z,46.34
2023-05-12T18:33:51.350Z,46.24
2023-05-12T18:35:52.870Z,46.51
2023-05-12T18:37:54.464Z,46.54
2023-05-12T18:39:58.312Z,46.79
2023-05-12T18:42:01.819Z,46.52
2023-05-12T18:44:10.383Z,46.66
2023-05-12T18:46:12.487Z,46.30
2023-05-12T18:48:14.511Z,46.71
2023-05-12T18:50:15.985Z,46.42
2023-05-12T18:52:17.544Z,46.55
2023-05-12T18:54:19.174Z,46.35
2023-05-12T18:56:20.774Z,46.44
2023-05-12T18:58:25.074Z,46.72
2023-05-12T19:00:31.670Z,46.52
2023-05-12T19:02:33.335Z,46.65
2023-05-12T19:04:35.126Z,46.59
2023-05-12T19:06:36.697Z,46.77
2023-05-12T19:08:38.152Z,46.51
2023-05-12T19:10:40.236Z,46.42
2023-05-12T19:12:41.841Z,46.58
2023-05-12T19:14:44.425Z,46.72
2023-05-12T19:16:46.697Z,46.42
2023-05-12T19:18:54.284Z,46.61
2023-05-12T19:20:55.893Z,46.75
2023-05-12T19:22:59.787Z,46.75
2023-05-12T19:25:05.706Z,46.38
2023-05-12T19:27:07.397Z,46.55
2023-05-12T19:29:09.043Z,46.67
2023-05-12T19:31:10.487Z,46.49
2023-05-12T19:33:12.265Z,46.61
2023-05-12T19:35:14.841Z,46.58
2023-05-12T19:37:16.817Z,46.79
2023-05-12T19:39:18.285Z,46.75
2023-05-12T19:41:20.113Z,46.44
2023-05-12T19:43:21.782Z,46.82
2023-05-12T19:45:23.505Z,46.55
2023-05-12T19:47:26.565Z,46.84
2023-05-12T19:49:28.976Z,46.48
2023-05-12T19:51:30.655Z,46.46
2023-05-12T19:53:32.168Z,46.68
2023-05-12T19:55:33.733Z,46.83
2023-05-12T19:57:38.174Z,46.56
2023-05-12T19:59:39.938Z,46.58
2023-05-12T20:01:41.578Z,46.55
2023-05-12T20:03:43.228Z,46.42
2023-05-12T20:05:45.766Z,46.66
2023-05-12T20:07:56.367Z,46.65
2023-05-12T20:09:57.896Z,46.26
2023-05-12T20:11:59.479Z,46.40
2023-05-12T20:14:01.239Z,46.11
2023-05-12T20:16:05.936Z,46.36
2023-05-12T20:18:07.810Z,46.47
2023-05-12T20:20:11.463Z,46.10
2023-05-12T20:22:13.071Z,46.12
2023-05-12T20:24:19.036Z,46.05
2023-05-12T20:26:23.696Z,46.21
2023-05-12T20:28:29.180Z,46.01
2023-05-12T20:30:30.734Z,46.26
2023-05-12T20:32:32.658Z,46.32
2023-05-12T20:34:34.397Z,46.00
2023-05-12T20:36:36.163Z,45.99
2023-05-12T20:38:38.020Z,46.14
2023-05-12T20:40:40.458Z,46.33
2023-05-12T20:42:44.477Z,46.13
2023-05-12T20:44:46.131Z,46.20
2023-05-12T20:46:48.105Z,46.31
2023-05-12T20:48:49.770Z,46.33
2023-05-12T20:50:52.252Z,46.03
2023-05-12T20:52:53.893Z,46.13
2023-05-12T20:54:59.127Z,46.14
2023-05-12T20:57:01.112Z,45.86
2023-05-12T20:59:02.783Z,45.90
2023-05-12T21:01:04.299Z,45.87
2023-05-12T21:03:06.489Z,45.79
2023-05-12T21:05:08.314Z,45.98
2023-05-12T21:07:09.890Z,45.87
2023-05-12T21:09:11.477Z,46.14
2023-05-12T21:11:17.419Z,46.02
2023-05-12T21:13:19.031Z,45.91
2023-05-12T21:15:20.854Z,45.89
2023-05-12T21:17:22.615Z,45.81
2023-05-12T21:19:24.242Z,45.96
2023-05-12T21:21:26.242Z,46.05
2023-05-12T21:23:27.856Z,45.93
2023-05-12T21:25:52.489Z,45.87
2023-05-12T21:27:54.026Z,46.33
2023-05-12T21:29:56.662Z,46.01
2023-05-12T21:31:58.430Z,46.06
2023-05-12T21:34:13.677Z,45.92
2023-05-12T21:36:17.204Z,45.82
2023-05-12T21:38:20.565Z,45.78
2023-05-12T21:40:22.336Z,45.88
2023-05-12T21:42:24.223Z,45.81
2023-05-12T21:44:25.799Z,45.65
2023-05-12T21:46:27.517Z,45.83
2023-05-12T21:48:29.222Z,45.79
2023-05-12T21:50:31.822Z,45.98
2023-05-12T21:52:33.679Z,45.99
2023-05-12T21:54:35.463Z,46.00
2023-05-12T21:56:39.269Z,45.91
2023-05-12T21:58:40.713Z,45.94
2023-05-12T22:00:42.355Z,46.00
2023-05-12T22:02:48.280Z,46.14
2023-05-12T22:04:50.430Z,46.01
2023-05-12T22:06:51.936Z,45.95
2023-05-12T22:08:54.159Z,46.05
2023-05-12T22:10:56.276Z,46.12
2023-05-12T22:12:57.835Z,46.07
2023-05-12T22:15:02.098Z,46.18
2023-05-12T22:17:03.783Z,45.99
2023-05-12T22:19:05.490Z,46.13
2023-05-12T22:21:07.041Z,46.24
2023-05-12T22:23:11.443Z,46.13
2023-05-12T22:25:12.918Z,46.10
2023-05-12T22:27:21.062Z,46.36
2023-05-12T22:29:22.595Z,46.42
2023-05-12T22:31:27.857Z,46.30
2023-05-12T22:33:35.444Z,46.33
2023-05-12T22:35:42.157Z,46.33
2023-05-12T22:37:43.933Z,46.38
2023-05-12T22:39:48.494Z,46.43
2023-05-12T22:41:49.984Z,46.51
2023-05-12T22:43:51.794Z,46.73
2023-05-12T22:45:55.935Z,46.62
2023-05-12T22:47:57.529Z,46.63
2023-05-12T22:50:01.537Z,46.82
2023-05-12T22:52:03.361Z,46.62
2023-05-12T22:54:07.765Z,46.69
2023-05-12T22:56:09.322Z,46.67
2023-05-12T22:58:11.713Z,46.63
2023-05-12T23:00:13.829Z,46.59
2023-05-12T23:02:21.466Z,46.82
2023-05-12T23:04:23.308Z,46.83
2023-05-12T23:06:24.788Z,46.61
2023-05-12T23:08:26.352Z,46.90
2023-05-12T23:10:27.874Z,46.88
2023-05-12T23:12:29.353Z,46.98
2023-05-12T23:14:33.080Z,46.94
2023-05-12T23:16:34.569Z,47.02
2023-05-12T23:18:44.961Z,46.90
2023-05-12T23:20:46.463Z,46.96
2023-05-12T23:22:48.102Z,47.15
2023-05-12T23:24:51.156Z,47.10
2023-05-12T23:26:55.889Z,47.18
2023-05-12T23:29:00.662Z,47.58
2023-05-12T23:31:03.629Z,47.50
2023-05-12T23:33:05.243Z,47.61
2023-05-12T23:35:07.819Z,47.59
2023-05-12T23:37:10.077Z,47.39
2023-05-12T23:39:12.600Z,47.71
2023-05-12T23:41:14.305Z,47.54
2023-05-12T23:43:15.841Z,47.87
2023-05-12T23:45:17.314Z,48.08
2023-05-12T23:47:21.487Z,47.81
2023-05-12T23:49:23.089Z,47.86
2023-05-12T23:51:24.796Z,47.88
2023-05-12T23:53:26.362Z,47.94
2023-05-12T23:55:28.137Z,47.95
2023-05-12T23:57:29.709Z,48.10
2023-05-12T23:59:31.350Z,48.04
